AXM1726 WSSS-WMKP
Flight info
| Callsign | AXM1726 |
|---|---|
| Flight time | 0h 59m |
| Altitude | 32000 |
| Route | AROS3A AROSO Y513 KALIL Y504 BILIK Y506 TEPUS GORV1E |
| Aircraft | A20N/M-SDE1FGHIJ1RWXYZ/LB1 |
Departure
| Time | 2026-05-05 01:28 |
|---|---|
| Airport | Singapore Changi Airport (WSSS) |
Arrival
| Time | 2026-05-05 02:27 |
|---|---|
| Airport | Penang International Airport (WMKP) |
| Time | Latitude | Longitude | Altitude | Speed | Heading |
|---|---|---|---|---|---|
| 2026-05-05 00:50 | 1.33878 | 103.98507 | 28 ft | 0 kts | 292° |
| 2026-05-05 01:18 | 1.33876 | 103.98513 | 28 ft | 2 kts | 292° |
| 2026-05-05 01:18 | 1.33870 | 103.98528 | 28 ft | 2 kts | 293° |
| 2026-05-05 01:19 | 1.33865 | 103.98543 | 28 ft | 2 kts | 262° |
| 2026-05-05 01:19 | 1.33871 | 103.98557 | 28 ft | 2 kts | 232° |
| 2026-05-05 01:19 | 1.33883 | 103.98567 | 28 ft | 2 kts | 200° |
| 2026-05-05 01:19 | 1.33897 | 103.98572 | 28 ft | 1 kts | 205° |
| 2026-05-05 01:20 | 1.33899 | 103.98573 | 28 ft | 0 kts | 205° |
| 2026-05-05 01:22 | 1.33893 | 103.98570 | 28 ft | 2 kts | 205° |
| 2026-05-05 01:23 | 1.33868 | 103.98560 | 28 ft | 5 kts | 202° |
| 2026-05-05 01:23 | 1.33820 | 103.98539 | 28 ft | 9 kts | 202° |
| 2026-05-05 01:23 | 1.33756 | 103.98527 | 28 ft | 9 kts | 149° |
| 2026-05-05 01:23 | 1.33719 | 103.98589 | 28 ft | 11 kts | 112° |
| 2026-05-05 01:24 | 1.33661 | 103.98631 | 28 ft | 11 kts | 188° |
| 2026-05-05 01:24 | 1.33582 | 103.98601 | 28 ft | 12 kts | 203° |
| 2026-05-05 01:24 | 1.33500 | 103.98567 | 28 ft | 13 kts | 202° |
| 2026-05-05 01:24 | 1.33413 | 103.98531 | 28 ft | 13 kts | 204° |
| 2026-05-05 01:25 | 1.33324 | 103.98492 | 28 ft | 14 kts | 204° |
| 2026-05-05 01:25 | 1.33231 | 103.98453 | 28 ft | 14 kts | 203° |
| 2026-05-05 01:25 | 1.33136 | 103.98413 | 28 ft | 14 kts | 202° |
| 2026-05-05 01:25 | 1.33054 | 103.98379 | 28 ft | 10 kts | 202° |
| 2026-05-05 01:26 | 1.32983 | 103.98359 | 28 ft | 6 kts | 174° |
| 2026-05-05 01:26 | 1.32947 | 103.98380 | 28 ft | 6 kts | 127° |
| 2026-05-05 01:26 | 1.32928 | 103.98425 | 28 ft | 7 kts | 112° |
| 2026-05-05 01:26 | 1.32906 | 103.98476 | 28 ft | 8 kts | 102° |
| 2026-05-05 01:27 | 1.32936 | 103.98524 | 28 ft | 9 kts | 24° |
| 2026-05-05 01:27 | 1.32967 | 103.98537 | 28 ft | 5 kts | 23° |
| 2026-05-05 01:27 | 1.33239 | 103.98652 | 28 ft | 77 kts | 23° |
| 2026-05-05 01:27 | 1.33937 | 103.98946 | 29 ft | 136 kts | 22° |
| 2026-05-05 01:28 | 1.34970 | 103.99385 | 68 ft | 178 kts | 23° |
| 2026-05-05 01:28 | 1.36156 | 103.99892 | 552 ft | 182 kts | 23° |
| 2026-05-05 01:28 | 1.37313 | 104.00382 | 1225 ft | 180 kts | 23° |
| 2026-05-05 01:28 | 1.38468 | 104.00867 | 1850 ft | 181 kts | 23° |
| 2026-05-05 01:29 | 1.39631 | 104.01357 | 2466 ft | 182 kts | 24° |
| 2026-05-05 01:29 | 1.40806 | 104.01852 | 3106 ft | 182 kts | 23° |
| 2026-05-05 01:29 | 1.42014 | 104.02363 | 3595 ft | 193 kts | 23° |
| 2026-05-05 01:29 | 1.43306 | 104.02908 | 3990 ft | 210 kts | 23° |
| 2026-05-05 01:30 | 1.44707 | 104.03500 | 4393 ft | 226 kts | 23° |
| 2026-05-05 01:30 | 1.46255 | 104.04152 | 4737 ft | 249 kts | 23° |
| 2026-05-05 01:30 | 1.47924 | 104.04835 | 5194 ft | 267 kts | 18° |
| 2026-05-05 01:30 | 1.49805 | 104.04987 | 5805 ft | 278 kts | 348° |
| 2026-05-05 01:31 | 1.51610 | 104.04246 | 6672 ft | 280 kts | 332° |
| 2026-05-05 01:31 | 1.53319 | 104.03297 | 7448 ft | 283 kts | 332° |
| 2026-05-05 01:31 | 1.55068 | 104.02334 | 8175 ft | 288 kts | 332° |
| 2026-05-05 01:31 | 1.56873 | 104.01347 | 8886 ft | 293 kts | 333° |
| 2026-05-05 01:32 | 1.58680 | 104.00365 | 9571 ft | 297 kts | 333° |
| 2026-05-05 01:32 | 1.60511 | 103.99374 | 10249 ft | 301 kts | 333° |
| 2026-05-05 01:32 | 1.62409 | 103.98349 | 10688 ft | 315 kts | 333° |
| 2026-05-05 01:32 | 1.64423 | 103.97264 | 10996 ft | 332 kts | 333° |
| 2026-05-05 01:33 | 1.66507 | 103.96139 | 11501 ft | 340 kts | 333° |
| 2026-05-05 01:33 | 1.68621 | 103.94997 | 12164 ft | 343 kts | 333° |
| 2026-05-05 01:33 | 1.70735 | 103.93854 | 12808 ft | 346 kts | 333° |
| 2026-05-05 01:33 | 1.72881 | 103.92696 | 13435 ft | 350 kts | 333° |
| 2026-05-05 01:34 | 1.74963 | 103.91375 | 14019 ft | 355 kts | 324° |
| 2026-05-05 01:34 | 1.76809 | 103.89683 | 14604 ft | 360 kts | 313° |
| 2026-05-05 01:34 | 1.78409 | 103.87728 | 15177 ft | 364 kts | 309° |
| 2026-05-05 01:34 | 1.79962 | 103.85695 | 15717 ft | 368 kts | 309° |
| 2026-05-05 01:35 | 1.81533 | 103.83621 | 16262 ft | 371 kts | 309° |
| 2026-05-05 01:35 | 1.83117 | 103.81544 | 16806 ft | 373 kts | 309° |
| 2026-05-05 01:35 | 1.84719 | 103.79456 | 17326 ft | 376 kts | 309° |
| 2026-05-05 01:35 | 1.86334 | 103.77362 | 17842 ft | 379 kts | 309° |
| 2026-05-05 01:36 | 1.87986 | 103.75222 | 18339 ft | 382 kts | 309° |
| 2026-05-05 01:36 | 1.89622 | 103.73105 | 18809 ft | 386 kts | 309° |
| 2026-05-05 01:36 | 1.91273 | 103.70967 | 19279 ft | 389 kts | 309° |
| 2026-05-05 01:36 | 1.92946 | 103.68797 | 19741 ft | 392 kts | 309° |
| 2026-05-05 01:37 | 1.94633 | 103.66606 | 20186 ft | 395 kts | 309° |
| 2026-05-05 01:37 | 1.96354 | 103.64368 | 20632 ft | 398 kts | 309° |
| 2026-05-05 01:37 | 1.98060 | 103.62151 | 21070 ft | 401 kts | 309° |
| 2026-05-05 01:37 | 1.99783 | 103.59911 | 21502 ft | 404 kts | 309° |
| 2026-05-05 01:38 | 2.01502 | 103.57675 | 21915 ft | 407 kts | 309° |
| 2026-05-05 01:38 | 2.03262 | 103.55386 | 22329 ft | 410 kts | 309° |
| 2026-05-05 01:38 | 2.05011 | 103.53111 | 22744 ft | 412 kts | 309° |
| 2026-05-05 01:38 | 2.06784 | 103.50805 | 23166 ft | 415 kts | 309° |
| 2026-05-05 01:39 | 2.08561 | 103.48494 | 23575 ft | 417 kts | 309° |
| 2026-05-05 01:39 | 2.10349 | 103.46169 | 23978 ft | 420 kts | 309° |
| 2026-05-05 01:39 | 2.12148 | 103.43828 | 24385 ft | 422 kts | 308° |
| 2026-05-05 01:39 | 2.13798 | 103.41372 | 24762 ft | 425 kts | 300° |
| 2026-05-05 01:40 | 2.15128 | 103.38668 | 25134 ft | 429 kts | 292° |
| 2026-05-05 01:40 | 2.16094 | 103.35847 | 25511 ft | 431 kts | 287° |
| 2026-05-05 01:40 | 2.16945 | 103.32938 | 25870 ft | 434 kts | 286° |
| 2026-05-05 01:40 | 2.17776 | 103.30016 | 26222 ft | 436 kts | 286° |
| 2026-05-05 01:41 | 2.18616 | 103.27078 | 26581 ft | 438 kts | 286° |
| 2026-05-05 01:41 | 2.19461 | 103.24147 | 26919 ft | 440 kts | 286° |
| 2026-05-05 01:41 | 2.20321 | 103.21189 | 27256 ft | 442 kts | 286° |
| 2026-05-05 01:41 | 2.21186 | 103.18221 | 27597 ft | 443 kts | 286° |
| 2026-05-05 01:42 | 2.22061 | 103.15228 | 27917 ft | 445 kts | 286° |
| 2026-05-05 01:42 | 2.22940 | 103.12220 | 28218 ft | 448 kts | 287° |
| 2026-05-05 01:42 | 2.23814 | 103.09231 | 28605 ft | 447 kts | 287° |
| 2026-05-05 01:42 | 2.24690 | 103.06240 | 29058 ft | 446 kts | 287° |
| 2026-05-05 01:43 | 2.25552 | 103.03294 | 29508 ft | 444 kts | 287° |
| 2026-05-05 01:43 | 2.26429 | 103.00295 | 29971 ft | 442 kts | 286° |
| 2026-05-05 01:43 | 2.27295 | 102.97336 | 30398 ft | 441 kts | 286° |
| 2026-05-05 01:43 | 2.28157 | 102.94388 | 30759 ft | 441 kts | 286° |
| 2026-05-05 01:44 | 2.29020 | 102.91432 | 31083 ft | 443 kts | 286° |
| 2026-05-05 01:44 | 2.29882 | 102.88483 | 31399 ft | 444 kts | 287° |
| 2026-05-05 01:44 | 2.30754 | 102.85503 | 31715 ft | 445 kts | 287° |
| 2026-05-05 01:44 | 2.31639 | 102.82491 | 31868 ft | 446 kts | 287° |
| 2026-05-05 01:45 | 2.33392 | 102.76530 | 31878 ft | 445 kts | 287° |
| 2026-05-05 01:45 | 2.35129 | 102.70589 | 31882 ft | 445 kts | 287° |
| 2026-05-05 01:46 | 2.36870 | 102.64635 | 31880 ft | 445 kts | 287° |
| 2026-05-05 01:46 | 2.38620 | 102.58641 | 31878 ft | 445 kts | 287° |
| 2026-05-05 01:47 | 2.40362 | 102.52667 | 31880 ft | 445 kts | 287° |
| 2026-05-05 01:47 | 2.42105 | 102.46691 | 31882 ft | 444 kts | 287° |
| 2026-05-05 01:48 | 2.43846 | 102.40775 | 31883 ft | 443 kts | 288° |
| 2026-05-05 01:48 | 2.46048 | 102.34992 | 31886 ft | 442 kts | 295° |
| 2026-05-05 01:49 | 2.48927 | 102.29518 | 31891 ft | 442 kts | 302° |
| 2026-05-05 01:49 | 2.52419 | 102.24411 | 31894 ft | 441 kts | 307° |
| 2026-05-05 01:50 | 2.56102 | 102.19432 | 31895 ft | 441 kts | 307° |
| 2026-05-05 01:50 | 2.59759 | 102.14485 | 31898 ft | 440 kts | 307° |
| 2026-05-05 01:51 | 2.63408 | 102.09535 | 31896 ft | 440 kts | 307° |
| 2026-05-05 01:51 | 2.67060 | 102.04575 | 31901 ft | 440 kts | 307° |
| 2026-05-05 01:52 | 2.70705 | 101.99622 | 31905 ft | 439 kts | 307° |
| 2026-05-05 01:52 | 2.74381 | 101.94628 | 31908 ft | 439 kts | 307° |
| 2026-05-05 01:53 | 2.78025 | 101.89677 | 31908 ft | 439 kts | 307° |
| 2026-05-05 01:53 | 2.81656 | 101.84743 | 31908 ft | 439 kts | 307° |
| 2026-05-05 01:54 | 2.85335 | 101.79745 | 31905 ft | 439 kts | 307° |
| 2026-05-05 01:54 | 2.88976 | 101.74794 | 31902 ft | 439 kts | 307° |
| 2026-05-05 01:55 | 2.92619 | 101.69840 | 31898 ft | 440 kts | 307° |
| 2026-05-05 01:55 | 2.96285 | 101.64854 | 31896 ft | 440 kts | 307° |
| 2026-05-05 01:56 | 2.99943 | 101.59879 | 31897 ft | 440 kts | 307° |
| 2026-05-05 01:56 | 3.03619 | 101.54881 | 31895 ft | 439 kts | 307° |
| 2026-05-05 01:57 | 3.07273 | 101.49910 | 31893 ft | 439 kts | 307° |
| 2026-05-05 01:57 | 3.10930 | 101.44932 | 31890 ft | 440 kts | 307° |
| 2026-05-05 01:58 | 3.14602 | 101.39933 | 31889 ft | 440 kts | 307° |
| 2026-05-05 01:58 | 3.18266 | 101.34946 | 31889 ft | 440 kts | 307° |
| 2026-05-05 01:59 | 3.21915 | 101.29977 | 31889 ft | 440 kts | 307° |
| 2026-05-05 01:59 | 3.25567 | 101.25002 | 31890 ft | 439 kts | 307° |
| 2026-05-05 02:00 | 3.29213 | 101.20037 | 31890 ft | 438 kts | 308° |
| 2026-05-05 02:00 | 3.33272 | 101.15469 | 31890 ft | 437 kts | 317° |
| 2026-05-05 02:01 | 3.38042 | 101.11687 | 31888 ft | 436 kts | 327° |
| 2026-05-05 02:01 | 3.43404 | 101.08772 | 31889 ft | 435 kts | 336° |
| 2026-05-05 02:02 | 3.48998 | 101.06271 | 31887 ft | 435 kts | 337° |
| 2026-05-05 02:02 | 3.54561 | 101.03793 | 31673 ft | 434 kts | 336° |
| 2026-05-05 02:03 | 3.57358 | 101.02541 | 31415 ft | 432 kts | 336° |
| 2026-05-05 02:03 | 3.60085 | 101.01317 | 31130 ft | 429 kts | 336° |
| 2026-05-05 02:03 | 3.62825 | 101.00086 | 30738 ft | 426 kts | 336° |
| 2026-05-05 02:03 | 3.65537 | 100.98869 | 30233 ft | 426 kts | 337° |
| 2026-05-05 02:04 | 3.68280 | 100.97639 | 29642 ft | 426 kts | 337° |
| 2026-05-05 02:04 | 3.70993 | 100.96433 | 29024 ft | 426 kts | 338° |
| 2026-05-05 02:04 | 3.73763 | 100.95201 | 28345 ft | 428 kts | 338° |
| 2026-05-05 02:04 | 3.76473 | 100.93999 | 27752 ft | 427 kts | 338° |
| 2026-05-05 02:05 | 3.79237 | 100.92772 | 27272 ft | 424 kts | 338° |
| 2026-05-05 02:05 | 3.81910 | 100.91584 | 26797 ft | 420 kts | 338° |
| 2026-05-05 02:05 | 3.84595 | 100.90390 | 26312 ft | 418 kts | 338° |
| 2026-05-05 02:05 | 3.87282 | 100.89193 | 25831 ft | 415 kts | 338° |
| 2026-05-05 02:06 | 3.89923 | 100.88017 | 25365 ft | 412 kts | 338° |
| 2026-05-05 02:06 | 3.92525 | 100.86857 | 24904 ft | 409 kts | 338° |
| 2026-05-05 02:06 | 3.95151 | 100.85687 | 24423 ft | 407 kts | 338° |
| 2026-05-05 02:06 | 3.97754 | 100.84528 | 23940 ft | 405 kts | 338° |
| 2026-05-05 02:07 | 4.00343 | 100.83376 | 23455 ft | 403 kts | 338° |
| 2026-05-05 02:07 | 4.02925 | 100.82225 | 22975 ft | 402 kts | 338° |
| 2026-05-05 02:07 | 4.05474 | 100.81089 | 22484 ft | 400 kts | 338° |
| 2026-05-05 02:07 | 4.08040 | 100.79946 | 21995 ft | 399 kts | 338° |
| 2026-05-05 02:08 | 4.10588 | 100.78812 | 21519 ft | 398 kts | 338° |
| 2026-05-05 02:08 | 4.13115 | 100.77685 | 21050 ft | 397 kts | 338° |
| 2026-05-05 02:08 | 4.15655 | 100.76553 | 20575 ft | 395 kts | 338° |
| 2026-05-05 02:08 | 4.18199 | 100.75424 | 20092 ft | 394 kts | 338° |
| 2026-05-05 02:09 | 4.20737 | 100.74320 | 19617 ft | 392 kts | 338° |
| 2026-05-05 02:09 | 4.23251 | 100.73228 | 19142 ft | 390 kts | 338° |
| 2026-05-05 02:09 | 4.25741 | 100.72147 | 18677 ft | 388 kts | 338° |
| 2026-05-05 02:09 | 4.28261 | 100.71050 | 18199 ft | 386 kts | 338° |
| 2026-05-05 02:10 | 4.30720 | 100.69981 | 17737 ft | 384 kts | 338° |
| 2026-05-05 02:10 | 4.33182 | 100.68908 | 17270 ft | 382 kts | 338° |
| 2026-05-05 02:10 | 4.35646 | 100.67834 | 16801 ft | 380 kts | 338° |
| 2026-05-05 02:10 | 4.38078 | 100.66774 | 16349 ft | 378 kts | 338° |
| 2026-05-05 02:11 | 4.40532 | 100.65702 | 15885 ft | 375 kts | 339° |
| 2026-05-05 02:11 | 4.42930 | 100.64657 | 15431 ft | 373 kts | 339° |
| 2026-05-05 02:11 | 4.45340 | 100.63605 | 14980 ft | 370 kts | 339° |
| 2026-05-05 02:11 | 4.47706 | 100.62573 | 14666 ft | 362 kts | 339° |
| 2026-05-05 02:12 | 4.50002 | 100.61572 | 14317 ft | 357 kts | 339° |
| 2026-05-05 02:12 | 4.54568 | 100.59580 | 13605 ft | 346 kts | 339° |
| 2026-05-05 02:12 | 4.56775 | 100.58617 | 13259 ft | 341 kts | 339° |
| 2026-05-05 02:13 | 4.58969 | 100.57660 | 12882 ft | 338 kts | 339° |
| 2026-05-05 02:13 | 4.61133 | 100.56717 | 12343 ft | 332 kts | 339° |
| 2026-05-05 02:13 | 4.63269 | 100.55788 | 11678 ft | 329 kts | 339° |
| 2026-05-05 02:13 | 4.65382 | 100.54865 | 11207 ft | 329 kts | 339° |
| 2026-05-05 02:14 | 4.67481 | 100.53951 | 10781 ft | 327 kts | 339° |
| 2026-05-05 02:14 | 4.69586 | 100.53032 | 10374 ft | 325 kts | 338° |
| 2026-05-05 02:14 | 4.71654 | 100.52126 | 10210 ft | 314 kts | 338° |
| 2026-05-05 02:14 | 4.73635 | 100.51259 | 10095 ft | 302 kts | 338° |
| 2026-05-05 02:15 | 4.75556 | 100.50419 | 9977 ft | 290 kts | 339° |
| 2026-05-05 02:15 | 4.77414 | 100.49608 | 9695 ft | 286 kts | 339° |
| 2026-05-05 02:15 | 4.79232 | 100.48815 | 9430 ft | 281 kts | 339° |
| 2026-05-05 02:15 | 4.81035 | 100.48019 | 9095 ft | 281 kts | 335° |
| 2026-05-05 02:16 | 4.82694 | 100.46912 | 8667 ft | 286 kts | 319° |
| 2026-05-05 02:16 | 4.84042 | 100.45408 | 8298 ft | 288 kts | 309° |
| 2026-05-05 02:16 | 4.85268 | 100.43782 | 7945 ft | 288 kts | 308° |
| 2026-05-05 02:16 | 4.86470 | 100.42158 | 7603 ft | 286 kts | 308° |
| 2026-05-05 02:17 | 4.87666 | 100.40558 | 7264 ft | 285 kts | 308° |
| 2026-05-05 02:17 | 4.88870 | 100.38961 | 6926 ft | 284 kts | 308° |
| 2026-05-05 02:17 | 4.90091 | 100.37352 | 6582 ft | 285 kts | 308° |
| 2026-05-05 02:17 | 4.91297 | 100.35769 | 6242 ft | 286 kts | 308° |
| 2026-05-05 02:18 | 4.92510 | 100.34175 | 5907 ft | 285 kts | 308° |
| 2026-05-05 02:18 | 4.93726 | 100.32579 | 5572 ft | 283 kts | 308° |
| 2026-05-05 02:18 | 4.94929 | 100.31000 | 5245 ft | 281 kts | 308° |
| 2026-05-05 02:18 | 4.96118 | 100.29439 | 4918 ft | 279 kts | 308° |
| 2026-05-05 02:19 | 4.97300 | 100.27885 | 4589 ft | 277 kts | 308° |
| 2026-05-05 02:19 | 4.98478 | 100.26337 | 4258 ft | 275 kts | 308° |
| 2026-05-05 02:19 | 4.99639 | 100.24812 | 3930 ft | 274 kts | 308° |
| 2026-05-05 02:19 | 5.00800 | 100.23287 | 3603 ft | 272 kts | 308° |
| 2026-05-05 02:20 | 5.01956 | 100.21768 | 3297 ft | 270 kts | 307° |
| 2026-05-05 02:20 | 5.03075 | 100.20299 | 3256 ft | 255 kts | 308° |
| 2026-05-05 02:20 | 5.04270 | 100.19045 | 3217 ft | 238 kts | 324° |
| 2026-05-05 02:20 | 5.05664 | 100.18201 | 3178 ft | 220 kts | 333° |
| 2026-05-05 02:21 | 5.06981 | 100.17523 | 3171 ft | 201 kts | 334° |
| 2026-05-05 02:21 | 5.08206 | 100.16903 | 3074 ft | 194 kts | 334° |
| 2026-05-05 02:21 | 5.09427 | 100.16277 | 2935 ft | 192 kts | 333° |
| 2026-05-05 02:21 | 5.10629 | 100.15653 | 2801 ft | 192 kts | 333° |
| 2026-05-05 02:22 | 5.11820 | 100.15032 | 2573 ft | 192 kts | 333° |
| 2026-05-05 02:22 | 5.13021 | 100.14405 | 2290 ft | 191 kts | 333° |
| 2026-05-05 02:22 | 5.14241 | 100.13879 | 2027 ft | 188 kts | 352° |
| 2026-05-05 02:22 | 5.15467 | 100.14215 | 1989 ft | 187 kts | 39° |
| 2026-05-05 02:23 | 5.16370 | 100.15171 | 2030 ft | 186 kts | 51° |
| 2026-05-05 02:23 | 5.17172 | 100.16120 | 2010 ft | 170 kts | 49° |
| 2026-05-05 02:23 | 5.17998 | 100.16995 | 1992 ft | 168 kts | 46° |
| 2026-05-05 02:23 | 5.18845 | 100.17817 | 1976 ft | 168 kts | 44° |
| 2026-05-05 02:24 | 5.19710 | 100.18619 | 1984 ft | 168 kts | 43° |
| 2026-05-05 02:24 | 5.20589 | 100.19418 | 1984 ft | 168 kts | 44° |
| 2026-05-05 02:24 | 5.21459 | 100.20206 | 1830 ft | 167 kts | 42° |
| 2026-05-05 02:24 | 5.22326 | 100.20989 | 1622 ft | 165 kts | 42° |
| 2026-05-05 02:25 | 5.23171 | 100.21755 | 1401 ft | 156 kts | 42° |
| 2026-05-05 02:25 | 5.23965 | 100.22473 | 1205 ft | 151 kts | 43° |
| 2026-05-05 02:25 | 5.24759 | 100.23193 | 1020 ft | 150 kts | 43° |
| 2026-05-05 02:25 | 5.25535 | 100.23895 | 834 ft | 150 kts | 43° |
| 2026-05-05 02:26 | 5.26319 | 100.24605 | 644 ft | 150 kts | 43° |
| 2026-05-05 02:26 | 5.27101 | 100.25313 | 449 ft | 149 kts | 43° |
| 2026-05-05 02:26 | 5.27875 | 100.26010 | 235 ft | 148 kts | 44° |
| 2026-05-05 02:26 | 5.28639 | 100.26705 | 49 ft | 146 kts | 43° |
| 2026-05-05 02:27 | 5.29328 | 100.27334 | 20 ft | 98 kts | 45° |
| 2026-05-05 02:27 | 5.29674 | 100.27648 | 21 ft | 52 kts | 43° |
| 2026-05-05 02:27 | 5.29900 | 100.27812 | 24 ft | 25 kts | 16° |
| 2026-05-05 02:27 | 5.30023 | 100.27840 | 25 ft | 15 kts | 12° |
| 2026-05-05 02:28 | 5.30116 | 100.27834 | 25 ft | 12 kts | 304° |
| 2026-05-05 02:28 | 5.30080 | 100.27760 | 26 ft | 13 kts | 223° |
| 2026-05-05 02:28 | 5.30011 | 100.27695 | 26 ft | 13 kts | 223° |
| 2026-05-05 02:28 | 5.29936 | 100.27626 | 25 ft | 15 kts | 222° |
| 2026-05-05 02:29 | 5.29851 | 100.27550 | 24 ft | 17 kts | 223° |
| 2026-05-05 02:29 | 5.29753 | 100.27460 | 22 ft | 19 kts | 222° |
| 2026-05-05 02:29 | 5.29644 | 100.27362 | 21 ft | 21 kts | 223° |
| 2026-05-05 02:29 | 5.29531 | 100.27258 | 20 ft | 21 kts | 222° |
| 2026-05-05 02:30 | 5.29420 | 100.27159 | 20 ft | 21 kts | 221° |
| 2026-05-05 02:30 | 5.29319 | 100.27067 | 21 ft | 15 kts | 223° |
| 2026-05-05 02:30 | 5.29252 | 100.27007 | 22 ft | 10 kts | 222° |
| 2026-05-05 02:30 | 5.29196 | 100.26955 | 23 ft | 10 kts | 230° |
| 2026-05-05 02:31 | 5.29205 | 100.26887 | 23 ft | 10 kts | 308° |
| 2026-05-05 02:31 | 5.29249 | 100.26837 | 25 ft | 7 kts | 311° |
| 2026-05-05 02:31 | 5.29284 | 100.26798 | 25 ft | 7 kts | 313° |
| 2026-05-05 02:31 | 5.29311 | 100.26769 | 27 ft | 4 kts | 314° |
| 2026-05-05 02:32 | 5.29324 | 100.26756 | 27 ft | 0 kts | 311° |
| 2026-05-05 02:32 | 5.29325 | 100.26755 | 27 ft | 0 kts | 311° |
| 2026-05-05 02:32 | 5.29328 | 100.26751 | 28 ft | 0 kts | 311° |